Time;durP1;ratioP1;P1;durP2;ratioP2;P2;SDS_P1;SDS_P2;PMS_P1;PMS_P2;Temp;Humidity;BMP_temperature;BMP_pressure;BME280_temperature;BME280_humidity;BME280_pressure;Samples;Min_cycle;Max_cycle;Signal;HPM_P1;HPM_P2
2022/01/23 00:00:37;;;;;;;21.20;13.07;;;2.40;99.90;;;;;;5050938;28;20234;-78
2022/01/23 00:03:09;;;;;;;21.73;12.57;;;2.40;99.90;;;;;;5035719;28;20190;-77
2022/01/23 00:05:40;;;;;;;23.43;13.00;;;2.40;99.90;;;;;;5025949;28;20226;-77
2022/01/23 00:08:09;;;;;;;22.87;13.23;;;2.50;99.90;;;;;;5038970;28;20199;-78
2022/01/23 00:10:36;;;;;;;22.60;13.87;;;2.40;99.90;;;;;;5033838;28;20696;-78
2022/01/23 00:13:12;;;;;;;22.53;13.10;;;2.40;99.90;;;;;;5035013;28;20202;-80
2022/01/23 00:18:31;;;;;;;19.43;12.03;;;2.50;99.90;;;;;;5038600;28;20205;-79
2022/01/23 00:21:00;;;;;;;22.00;13.30;;;2.40;99.90;;;;;;5042738;28;20292;-78
2022/01/23 00:23:32;;;;;;;22.00;13.63;;;2.50;99.90;;;;;;5035818;28;20242;-77
2022/01/23 00:31:29;;;;;;;21.40;13.70;;;2.30;99.90;;;;;;5032809;28;20728;-78
2022/01/23 00:33:56;;;;;;;22.10;13.67;;;2.30;99.90;;;;;;5032197;28;20202;-78
2022/01/23 00:36:26;;;;;;;17.80;11.97;;;2.30;99.90;;;;;;5033031;28;20238;-78
2022/01/23 00:38:53;;;;;;;18.60;11.57;;;2.40;99.90;;;;;;5033878;28;20210;-77
2022/01/23 00:41:20;;;;;;;18.20;11.77;;;2.40;99.90;;;;;;5032584;28;20226;-81
2022/01/23 00:43:48;;;;;;;18.43;12.53;;;2.40;99.90;;;;;;5032877;28;20579;-78
2022/01/23 00:46:24;;;;;;;19.03;12.40;;;2.40;99.90;;;;;;5042947;28;20221;-78
2022/01/23 00:49:24;;;;;;;17.67;12.10;;;2.40;99.90;;;;;;5053004;28;20225;-79
2022/01/23 00:51:51;;;;;;;19.73;11.97;;;2.50;99.90;;;;;;5045861;28;20233;-82
2022/01/23 00:54:18;;;;;;;20.87;12.77;;;2.40;99.90;;;;;;5052803;28;20674;-78
2022/01/23 00:56:45;;;;;;;22.83;13.47;;;2.40;99.90;;;;;;5052518;28;20325;-79
2022/01/23 00:59:12;;;;;;;21.43;12.03;;;2.40;99.90;;;;;;5052831;28;20217;-80
2022/01/23 01:01:39;;;;;;;20.83;12.57;;;2.40;99.90;;;;;;5052590;28;20236;-78
2022/01/23 01:04:06;;;;;;;21.63;12.37;;;2.50;99.90;;;;;;5053172;28;20214;-80
2022/01/23 01:06:32;;;;;;;17.97;12.27;;;2.60;99.90;;;;;;5051935;28;20413;-81
2022/01/23 01:09:05;;;;;;;19.07;12.33;;;2.60;99.90;;;;;;5052387;28;20209;-79
2022/01/23 01:17:14;;;;;;;19.07;11.70;;;2.70;99.90;;;;;;5046029;28;20364;-78
2022/01/23 01:30:58;;;;;;;16.60;10.87;;;2.50;99.90;;;;;;5042974;28;20260;-79
2022/01/23 01:33:35;;;;;;;19.20;10.97;;;2.50;99.90;;;;;;5052968;28;20197;-79
2022/01/23 01:36:16;;;;;;;18.00;11.00;;;2.50;99.90;;;;;;5050518;28;20225;-81
2022/01/23 01:38:43;;;;;;;16.93;10.90;;;2.50;99.90;;;;;;5051652;28;20260;-86
2022/01/23 01:41:12;;;;;;;17.37;11.20;;;2.40;99.90;;;;;;5051347;28;20313;-79
2022/01/23 01:43:38;;;;;;;18.00;10.80;;;2.60;99.90;;;;;;5051967;28;20288;-79
2022/01/23 01:46:05;;;;;;;16.93;11.20;;;2.60;99.90;;;;;;5051001;28;20265;-80
2022/01/23 01:48:32;;;;;;;17.43;11.43;;;2.60;99.90;;;;;;5051613;28;20221;-83
2022/01/23 01:51:00;;;;;;;18.10;11.80;;;2.50;99.90;;;;;;5050823;28;20700;-80
2022/01/23 01:53:27;;;;;;;16.73;11.20;;;2.50;99.90;;;;;;5051102;28;20595;-79
2022/01/23 01:55:56;;;;;;;19.03;12.27;;;2.60;99.90;;;;;;5051436;28;20780;-80
2022/01/23 01:58:57;;;;;;;20.10;12.83;;;2.50;99.90;;;;;;5051138;28;20230;-81
2022/01/23 02:09:40;;;;;;;20.43;11.83;;;2.50;99.90;;;;;;5051960;28;20560;-80
2022/01/23 02:12:27;;;;;;;17.03;10.80;;;2.50;99.90;;;;;;5051222;28;20225;-81
2022/01/23 02:15:26;;;;;;;20.70;11.27;;;2.50;99.90;;;;;;5051492;28;20205;-80
2022/01/23 02:18:00;;;;;;;19.03;11.87;;;2.60;99.90;;;;;;5040677;28;20217;-79
2022/01/23 02:23:29;;;;;;;16.43;11.00;;;2.60;99.90;;;;;;5041894;28;20705;-80
2022/01/23 02:51:39;;;;;;;17.77;11.53;;;2.60;99.90;;;;;;5034694;28;20232;-79
2022/01/23 02:54:24;;;;;;;15.67;10.90;;;2.70;99.90;;;;;;5053585;28;20209;-79
2022/01/23 02:56:54;;;;;;;18.03;12.17;;;2.80;99.90;;;;;;5036468;28;20253;-79
2022/01/23 02:59:24;;;;;;;15.90;10.97;;;2.90;99.90;;;;;;5059648;28;20448;-79
2022/01/23 03:02:09;;;;;;;17.37;11.53;;;2.70;99.90;;;;;;5063827;28;20829;-79
2022/01/23 03:04:38;;;;;;;20.30;13.40;;;2.80;99.90;;;;;;5051800;28;20193;-80
2022/01/23 03:07:31;;;;;;;20.23;11.73;;;2.80;99.90;;;;;;5041709;28;20253;-82
2022/01/23 03:10:05;;;;;;;16.90;11.80;;;2.70;99.90;;;;;;5068304;28;20286;-79
2022/01/23 03:15:23;;;;;;;18.63;12.53;;;2.70;99.90;;;;;;5048825;28;20214;-79
2022/01/23 03:26:19;;;;;;;15.77;10.90;;;2.80;99.90;;;;;;5041998;28;20240;-80
2022/01/23 03:29:05;;;;;;;19.87;13.17;;;2.80;99.90;;;;;;5037926;28;20210;-80
2022/01/23 03:31:43;;;;;;;20.40;12.13;;;3.10;99.90;;;;;;5033794;28;20237;-80
2022/01/23 03:34:10;;;;;;;18.00;12.37;;;3.10;99.90;;;;;;5034848;28;20653;-79
2022/01/23 03:36:38;;;;;;;21.43;13.97;;;3.10;99.90;;;;;;5033725;28;20262;-80
2022/01/23 03:39:07;;;;;;;17.17;11.10;;;3.20;99.90;;;;;;5034390;28;20214;-80
2022/01/23 03:41:37;;;;;;;18.73;12.10;;;3.20;99.90;;;;;;5045838;28;20280;-84
2022/01/23 03:44:05;;;;;;;17.63;11.03;;;3.10;99.80;;;;;;5054520;28;20214;-80
2022/01/23 03:46:47;;;;;;;17.23;11.03;;;3.00;99.80;;;;;;5052852;28;20583;-80
2022/01/23 03:49:33;;;;;;;18.43;12.27;;;3.10;99.80;;;;;;5054732;28;20230;-80
2022/01/23 03:52:01;;;;;;;19.83;12.67;;;3.10;99.90;;;;;;5052929;28;20229;-80
2022/01/23 03:54:29;;;;;;;15.90;10.37;;;3.20;99.90;;;;;;5054084;28;20206;-81
2022/01/23 03:57:06;;;;;;;16.00;10.93;;;3.10;99.80;;;;;;5053579;28;20284;-80
2022/01/23 03:59:34;;;;;;;16.10;10.40;;;3.20;99.90;;;;;;5054046;28;20690;-81
2022/01/23 04:02:01;;;;;;;14.10;10.20;;;3.10;99.80;;;;;;5053415;28;20595;-80
2022/01/23 04:04:38;;;;;;;14.73;10.77;;;3.00;99.80;;;;;;5053286;28;20206;-82
2022/01/23 04:07:07;;;;;;;15.67;10.10;;;3.00;99.80;;;;;;5053293;28;20261;-80
2022/01/23 04:09:34;;;;;;;16.33;10.33;;;3.10;99.90;;;;;;5054192;28;20284;-83
2022/01/23 04:12:04;;;;;;;14.73;9.47;;;3.10;99.90;;;;;;5053745;28;20229;-81
2022/01/23 04:14:33;;;;;;;18.60;11.23;;;3.00;99.80;;;;;;5054476;28;20201;-80
2022/01/23 04:19:58;;;;;;;14.00;9.70;;;3.00;99.80;;;;;;5048858;28;20210;-80
2022/01/23 05:01:02;;;;;;;15.07;8.67;;;3.10;98.90;;;;;;5052460;28;20291;-80
2022/01/23 05:06:22;;;;;;;14.73;9.83;;;2.90;99.40;;;;;;5052277;28;20236;-79
2022/01/23 05:08:49;;;;;;;11.40;8.40;;;3.00;99.80;;;;;;5053329;28;20704;-80
2022/01/23 05:11:16;;;;;;;12.40;8.57;;;3.10;99.50;;;;;;5052937;28;20545;-79
2022/01/23 05:13:43;;;;;;;11.83;8.93;;;3.10;99.10;;;;;;5053029;28;20441;-79
2022/01/23 05:16:12;;;;;;;13.73;8.27;;;3.30;99.30;;;;;;5051145;28;20222;-79
2022/01/23 05:18:40;;;;;;;14.77;8.83;;;3.30;98.70;;;;;;5052495;28;20201;-80
2022/01/23 05:21:22;;;;;;;12.80;8.90;;;3.50;98.10;;;;;;5052138;28;20225;-80
2022/01/23 05:23:49;;;;;;;11.63;7.73;;;3.60;97.70;;;;;;5053232;28;20201;-79
2022/01/23 05:26:16;;;;;;;11.40;7.40;;;3.60;97.30;;;;;;5051879;28;20229;-79
2022/01/23 05:28:42;;;;;;;11.97;8.03;;;3.30;96.90;;;;;;5051602;28;20201;-84
2022/01/23 05:31:11;;;;;;;11.90;7.63;;;3.20;97.30;;;;;;5051138;28;20393;-79
2022/01/23 05:33:38;;;;;;;12.03;7.87;;;3.00;97.90;;;;;;5041337;28;20277;-80
2022/01/23 05:36:06;;;;;;;13.97;7.90;;;3.00;98.60;;;;;;5052101;28;20229;-80
2022/01/23 05:38:33;;;;;;;10.43;7.83;;;3.30;98.40;;;;;;5052994;28;20296;-80
2022/01/23 05:41:01;;;;;;;10.30;7.30;;;3.40;98.10;;;;;;5052331;28;20251;-79
2022/01/23 05:43:28;;;;;;;9.93;7.13;;;3.40;97.40;;;;;;5052828;28;20234;-79
2022/01/23 05:45:55;;;;;;;12.03;7.83;;;3.50;97.30;;;;;;5052067;28;20566;-81
2022/01/23 05:48:23;;;;;;;10.67;7.90;;;3.40;97.30;;;;;;5052835;28;20224;-80
2022/01/23 05:50:50;;;;;;;11.20;7.33;;;3.60;97.90;;;;;;5051745;28;20232;-79
2022/01/23 05:53:17;;;;;;;10.13;7.83;;;3.70;96.90;;;;;;5052622;28;20676;-79
2022/01/23 05:55:44;;;;;;;10.33;7.77;;;3.70;96.90;;;;;;5052827;28;20233;-79
2022/01/23 05:58:11;;;;;;;9.50;7.17;;;3.50;96.80;;;;;;5052933;28;20289;-79
2022/01/23 06:00:38;;;;;;;9.57;7.17;;;3.60;96.70;;;;;;5051787;28;20230;-82
2022/01/23 06:03:05;;;;;;;11.17;7.90;;;3.50;96.40;;;;;;5052514;28;20696;-79
2022/01/23 06:05:33;;;;;;;11.07;7.53;;;3.60;96.50;;;;;;5051807;28;20229;-80
2022/01/23 06:08:00;;;;;;;9.83;7.33;;;3.70;96.80;;;;;;5052136;28;20198;-79
2022/01/23 06:10:29;;;;;;;10.27;7.70;;;3.50;96.30;;;;;;5052055;28;20656;-80
2022/01/23 06:12:56;;;;;;;11.63;7.67;;;3.40;96.50;;;;;;5052724;28;20209;-79
2022/01/23 06:15:23;;;;;;;12.50;8.00;;;3.30;96.80;;;;;;5051498;28;20198;-79
2022/01/23 06:17:49;;;;;;;11.67;8.13;;;3.20;97.10;;;;;;5052663;28;20202;-79
2022/01/23 06:20:16;;;;;;;11.47;7.90;;;3.20;98.00;;;;;;5051531;28;20213;-79
2022/01/23 06:22:47;;;;;;;11.27;7.93;;;3.30;97.60;;;;;;5052303;28;20688;-81
2022/01/23 06:25:15;;;;;;;11.17;8.10;;;3.20;97.30;;;;;;5052121;28;20256;-81
2022/01/23 06:27:43;;;;;;;12.53;8.43;;;3.30;97.30;;;;;;5051918;28;20699;-79
2022/01/23 06:30:10;;;;;;;10.87;8.27;;;3.30;97.90;;;;;;5051865;28;20194;-79
2022/01/23 06:32:38;;;;;;;10.40;7.83;;;3.50;97.70;;;;;;5051069;28;20942;-81
2022/01/23 06:35:06;;;;;;;11.80;8.27;;;3.60;97.40;;;;;;5052175;28;20197;-79
2022/01/23 06:37:33;;;;;;;13.33;8.57;;;3.70;96.90;;;;;;5051725;28;20224;-79
2022/01/23 06:40:24;;;;;;;12.00;8.47;;;3.70;97.20;;;;;;5051921;28;20201;-79
2022/01/23 06:42:51;;;;;;;12.70;9.10;;;3.70;96.50;;;;;;5051760;28;20553;-79
2022/01/23 06:45:18;;;;;;;13.33;8.43;;;3.50;96.10;;;;;;5050581;28;20560;-79
2022/01/23 06:47:45;;;;;;;12.23;9.30;;;3.50;97.40;;;;;;5050506;28;20572;-79
2022/01/23 06:50:12;;;;;;;10.53;8.30;;;3.50;96.90;;;;;;5049772;28;20218;-79
2022/01/23 06:52:38;;;;;;;11.30;9.07;;;3.50;97.00;;;;;;5051787;28;20650;-80
2022/01/23 06:55:12;;;;;;;12.33;9.27;;;3.60;97.10;;;;;;5052404;28;20201;-79
2022/01/23 06:57:40;;;;;;;12.93;9.70;;;3.70;97.00;;;;;;5034367;28;20210;-79
2022/01/23 07:00:08;;;;;;;13.07;8.80;;;3.80;96.40;;;;;;5030242;28;20203;-80
2022/01/23 07:02:35;;;;;;;12.33;8.80;;;3.60;96.60;;;;;;5049561;28;20218;-82
2022/01/23 07:05:02;;;;;;;13.63;9.00;;;3.70;96.80;;;;;;5041894;28;20297;-80
2022/01/23 07:07:29;;;;;;;11.83;8.63;;;3.60;96.40;;;;;;5035905;28;20257;-81
2022/01/23 07:09:55;;;;;;;11.97;9.00;;;3.60;96.70;;;;;;5035925;28;20212;-79
2022/01/23 07:12:22;;;;;;;13.10;9.10;;;3.60;96.70;;;;;;5041647;28;20218;-79
2022/01/23 07:14:51;;;;;;;13.80;9.93;;;3.40;96.70;;;;;;5032880;28;20206;-79
2022/01/23 07:17:24;;;;;;;13.10;9.67;;;3.50;97.40;;;;;;5033669;28;20728;-79
2022/01/23 07:19:55;;;;;;;13.27;9.70;;;3.60;97.40;;;;;;5038208;28;20559;-79
2022/01/23 07:22:21;;;;;;;12.70;9.93;;;3.70;96.90;;;;;;5031580;28;20237;-80
2022/01/23 07:24:48;;;;;;;14.27;10.33;;;3.60;96.50;;;;;;5013409;28;20206;-78
2022/01/23 07:27:19;;;;;;;12.63;9.87;;;3.50;96.90;;;;;;5012599;28;20227;-77
2022/01/23 07:29:47;;;;;;;11.60;9.10;;;3.60;97.40;;;;;;5014292;28;20278;-79
2022/01/23 07:35:42;;;;;;;13.70;9.60;;;3.90;96.20;;;;;;5032196;28;20740;-78
2022/01/23 07:38:11;;;;;;;12.33;9.47;;;3.80;96.40;;;;;;5030308;28;20199;-77
2022/01/23 07:40:38;;;;;;;14.17;9.97;;;3.70;96.10;;;;;;5035034;28;20261;-79
2022/01/23 07:43:05;;;;;;;15.47;10.13;;;3.50;96.40;;;;;;5035608;28;20230;-77
2022/01/23 07:45:33;;;;;;;13.40;10.40;;;3.50;97.40;;;;;;5032643;28;20250;-79
2022/01/23 07:47:59;;;;;;;13.57;9.90;;;3.50;97.40;;;;;;5034137;28;20209;-77
2022/01/23 07:50:28;;;;;;;12.67;10.10;;;3.60;97.10;;;;;;5033930;28;20211;-81
2022/01/23 07:52:57;;;;;;;15.07;10.47;;;3.70;96.90;;;;;;5032991;28;20215;-76
2022/01/23 07:55:23;;;;;;;12.60;10.07;;;3.60;96.70;;;;;;5032775;28;20226;-77
2022/01/23 07:57:52;;;;;;;15.70;10.57;;;3.50;96.90;;;;;;5034031;28;20198;-77
2022/01/23 08:00:22;;;;;;;12.93;9.93;;;3.70;97.70;;;;;;5039611;28;20205;-81
2022/01/23 08:02:48;;;;;;;13.63;10.37;;;3.60;97.00;;;;;;5031129;28;20222;-78
2022/01/23 08:05:16;;;;;;;13.80;9.90;;;3.70;97.20;;;;;;5027486;28;20199;-83
2022/01/23 08:07:47;;;;;;;13.07;9.70;;;3.80;96.90;;;;;;5024501;28;20209;-78
2022/01/23 08:10:16;;;;;;;14.33;10.13;;;4.00;96.70;;;;;;5028388;28;20198;-80
2022/01/23 08:12:44;;;;;;;13.83;9.83;;;4.00;96.00;;;;;;5047447;28;20198;-77
2022/01/23 08:15:18;;;;;;;12.07;9.40;;;4.10;96.30;;;;;;5043808;28;20200;-78
2022/01/23 08:17:45;;;;;;;14.30;9.87;;;4.20;94.90;;;;;;5037876;28;20195;-83
2022/01/23 08:20:12;;;;;;;13.30;10.03;;;4.00;94.90;;;;;;5038546;28;20715;-77
2022/01/23 08:22:39;;;;;;;13.27;10.40;;;4.00;95.90;;;;;;5047537;28;20225;-77
2022/01/23 08:25:07;;;;;;;13.93;10.20;;;4.10;95.80;;;;;;5053550;28;20198;-78
2022/01/23 08:27:35;;;;;;;13.63;10.27;;;4.20;95.40;;;;;;5053838;28;20232;-79
2022/01/23 08:30:04;;;;;;;15.30;10.27;;;4.30;94.90;;;;;;5053721;28;20618;-78
2022/01/23 08:32:30;;;;;;;14.23;10.23;;;4.40;95.10;;;;;;5058509;28;20730;-78
2022/01/23 08:35:01;;;;;;;13.50;10.27;;;4.50;95.00;;;;;;5051548;28;20226;-79
2022/01/23 08:37:28;;;;;;;13.43;10.20;;;4.40;94.90;;;;;;5050207;28;20249;-84
2022/01/23 08:39:55;;;;;;;12.57;9.70;;;4.40;95.00;;;;;;5051307;28;20225;-84
2022/01/23 08:42:22;;;;;;;14.63;11.20;;;4.50;95.10;;;;;;5055682;28;20237;-81
2022/01/23 08:44:52;;;;;;;16.27;10.73;;;4.20;94.70;;;;;;5059158;28;20201;-85
2022/01/23 08:47:19;;;;;;;13.40;11.20;;;4.20;94.90;;;;;;5065259;28;20229;-83
2022/01/23 08:49:48;;;;;;;13.77;10.37;;;4.20;95.60;;;;;;5052853;28;20945;-80
2022/01/23 08:52:17;;;;;;;15.23;10.77;;;4.10;95.40;;;;;;5042894;28;20314;-80
2022/01/23 08:54:45;;;;;;;12.73;10.23;;;4.10;95.20;;;;;;5049626;28;20202;-80
2022/01/23 08:57:13;;;;;;;14.67;10.63;;;4.20;94.90;;;;;;5048233;28;20215;-79
2022/01/23 08:59:40;;;;;;;14.53;11.00;;;4.20;94.90;;;;;;5053685;28;20204;-82
2022/01/23 09:02:09;;;;;;;14.13;10.17;;;4.30;94.90;;;;;;5053451;28;20709;-83
2022/01/23 09:04:36;;;;;;;13.77;10.20;;;4.40;95.00;;;;;;5045723;28;20201;-85
2022/01/23 09:07:03;;;;;;;15.30;11.03;;;4.30;94.30;;;;;;5041019;28;20222;-88
2022/01/23 09:09:32;;;;;;;14.17;10.80;;;4.30;94.80;;;;;;5039380;28;20198;-85
2022/01/23 09:12:05;;;;;;;15.90;11.37;;;4.20;94.50;;;;;;5043914;28;20247;-84
2022/01/23 09:14:32;;;;;;;13.63;10.97;;;4.20;94.90;;;;;;5051050;28;20194;-83
2022/01/23 09:17:00;;;;;;;14.13;11.17;;;4.30;94.50;;;;;;5058801;28;20225;-82
2022/01/23 09:19:30;;;;;;;14.77;11.47;;;4.30;94.80;;;;;;5061880;28;20206;-82
2022/01/23 09:21:58;;;;;;;13.23;9.87;;;4.30;94.80;;;;;;5013740;28;20680;-82
2022/01/23 09:24:27;;;;;;;14.37;11.23;;;4.20;94.50;;;;;;5034713;28;20229;-86
2022/01/23 09:26:55;;;;;;;14.53;11.07;;;4.30;94.90;;;;;;5045862;28;20256;-82
2022/01/23 09:29:31;;;;;;;14.03;10.53;;;4.50;94.70;;;;;;5047307;28;20195;-81
2022/01/23 09:31:58;;;;;;;16.23;11.73;;;4.70;94.20;;;;;;5043197;28;20225;-82
2022/01/23 09:34:27;;;;;;;14.57;11.30;;;4.60;93.40;;;;;;5048465;28;20202;-87
2022/01/23 09:36:59;;;;;;;14.30;11.00;;;4.70;93.80;;;;;;5043637;28;20215;-82
2022/01/23 09:39:30;;;;;;;17.77;12.57;;;4.70;93.40;;;;;;5050828;28;20557;-88
2022/01/23 09:42:00;;;;;;;13.90;11.57;;;4.90;93.90;;;;;;5046931;28;20240;-85
2022/01/23 09:44:31;;;;;;;13.57;10.67;;;5.10;93.30;;;;;;5038680;28;20276;-82
2022/01/23 09:46:59;;;;;;;14.63;11.63;;;5.20;92.40;;;;;;5046919;28;20225;-81
2022/01/23 09:49:30;;;;;;;15.90;12.27;;;5.20;92.40;;;;;;5045316;28;20297;-87
2022/01/23 09:52:01;;;;;;;15.20;11.90;;;5.30;92.40;;;;;;5038552;28;20222;-85
2022/01/23 09:54:31;;;;;;;13.67;11.27;;;5.40;92.50;;;;;;5043321;28;20224;-84
2022/01/23 09:57:02;;;;;;;15.73;11.37;;;5.50;91.60;;;;;;5046309;28;20313;-83
2022/01/23 09:59:30;;;;;;;14.30;11.40;;;5.40;91.10;;;;;;5044772;28;20281;-84
2022/01/23 10:02:01;;;;;;;16.10;10.90;;;5.40;91.40;;;;;;5028668;28;20218;-83
2022/01/23 10:04:28;;;;;;;13.23;10.83;;;5.40;91.30;;;;;;5021616;28;20227;-83
2022/01/23 10:06:55;;;;;;;14.17;10.00;;;5.30;91.50;;;;;;5028917;28;20269;-86
2022/01/23 10:09:24;;;;;;;13.60;11.47;;;5.50;91.50;;;;;;5026062;28;20199;-83
2022/01/23 10:11:51;;;;;;;13.87;10.67;;;5.40;91.20;;;;;;5020342;28;20230;-83
2022/01/23 10:14:19;;;;;;;14.20;11.00;;;5.40;91.20;;;;;;5033257;28;20210;-82
2022/01/23 10:16:47;;;;;;;14.17;10.93;;;5.50;92.10;;;;;;5035947;28;20226;-86
2022/01/23 10:19:15;;;;;;;14.90;11.57;;;5.80;90.70;;;;;;5048615;28;20265;-85
2022/01/23 10:21:44;;;;;;;15.33;12.27;;;5.80;89.50;;;;;;5027429;28;20218;-84
2022/01/23 10:24:12;;;;;;;15.50;12.10;;;5.70;89.50;;;;;;5030711;28;20646;-84
2022/01/23 10:26:51;;;;;;;15.03;11.67;;;5.70;90.50;;;;;;5051633;28;20223;-84
2022/01/23 10:29:20;;;;;;;13.27;10.83;;;6.00;90.50;;;;;;5049240;28;20623;-86
2022/01/23 10:32:08;;;;;;;15.60;11.03;;;6.30;88.60;;;;;;5045625;28;20297;-82
2022/01/23 10:34:56;;;;;;;13.53;11.03;;;6.40;86.40;;;;;;5044043;28;20945;-83
2022/01/23 10:37:35;;;;;;;13.47;10.87;;;6.20;86.20;;;;;;5037937;28;20226;-85
2022/01/23 10:40:09;;;;;;;13.50;10.67;;;6.30;86.70;;;;;;5047708;28;20256;-83
2022/01/23 10:46:33;;;;;;;13.05;10.90;;;6.20;87.00;;;;;;5045916;28;20236;-84
2022/01/23 10:48:40;;;;;;;12.32;10.40;;;6.40;84.50;;;;;;5051109;28;20220;-83
2022/01/23 10:51:26;;;;;;;13.40;10.45;;;6.30;84.40;;;;;;5052586;28;20221;-84
2022/01/23 10:54:11;;;;;;;14.18;10.05;;;6.10;86.40;;;;;;5044919;28;20205;-86
2022/01/23 10:56:55;;;;;;;12.90;10.50;;;6.10;87.40;;;;;;5052152;28;20715;-85
2022/01/23 10:59:24;;;;;;;13.93;11.07;;;6.40;87.40;;;;;;5051168;28;20206;-87
2022/01/23 11:02:02;;;;;;;16.67;13.27;;;6.40;86.60;;;;;;5049940;28;20316;-86
2022/01/23 11:04:29;;;;;;;14.77;11.50;;;6.50;85.80;;;;;;5043612;28;20255;-86
2022/01/23 11:06:59;;;;;;;15.63;11.77;;;6.30;87.00;;;;;;5035061;28;20223;-87
2022/01/23 11:09:41;;;;;;;15.63;12.82;;;6.50;85.90;;;;;;5044582;28;20198;-89
2022/01/23 11:12:29;;;;;;;14.02;11.32;;;6.80;84.80;;;;;;5048081;28;20230;-84
2022/01/23 11:17:50;;;;;;;13.30;10.88;;;6.70;83.60;;;;;;5025522;28;20284;-87
2022/01/23 11:20:34;;;;;;;14.77;11.55;;;6.70;84.00;;;;;;5022983;28;20198;-85
2022/01/23 11:23:12;;;;;;;16.02;12.55;;;6.80;83.60;;;;;;5041041;28;20191;-85
2022/01/23 11:25:40;;;;;;;13.02;10.77;;;7.00;83.30;;;;;;5054540;28;20230;-83
2022/01/23 11:28:14;;;;;;;14.43;11.57;;;7.10;81.80;;;;;;5050025;28;20219;-87
2022/01/23 11:30:49;;;;;;;13.85;11.13;;;7.30;79.00;;;;;;5045837;28;20317;-83
2022/01/23 11:33:18;;;;;;;14.77;11.40;;;7.10;79.90;;;;;;5032356;28;20269;-83
2022/01/23 11:35:48;;;;;;;15.23;11.57;;;7.30;80.50;;;;;;5026565;28;20327;-86
2022/01/23 11:38:18;;;;;;;13.85;11.65;;;7.20;79.00;;;;;;5030888;28;20210;-86
2022/01/23 11:55:01;;;;;;;13.68;11.23;;;7.10;79.00;;;;;;5037503;28;20203;-83
2022/01/23 11:57:44;;;;;;;15.00;11.20;;;7.00;79.70;;;;;;5056380;28;20309;-83
2022/01/23 12:00:16;;;;;;;13.70;10.70;;;7.10;78.60;;;;;;5057462;28;20681;-82
2022/01/23 12:02:45;;;;;;;15.40;12.63;;;7.30;77.30;;;;;;5063670;28;20244;-83
2022/01/23 12:05:24;;;;;;;14.23;11.30;;;7.40;76.20;;;;;;5057563;28;20221;-83
2022/01/23 12:08:29;;;;;;;13.05;10.23;;;7.30;75.30;;;;;;5037419;28;20240;-84
2022/01/23 12:11:41;;;;;;;12.73;10.77;;;7.00;77.70;;;;;;5051667;28;20316;-82
2022/01/23 12:17:13;;;;;;;13.25;11.00;;;7.10;77.10;;;;;;5057899;28;20227;-81
2022/01/23 12:19:58;;;;;;;13.45;11.30;;;7.20;76.80;;;;;;5052156;28;20190;-80
2022/01/23 12:22:54;;;;;;;13.98;11.48;;;7.20;77.70;;;;;;5057349;28;20230;-81
2022/01/23 12:25:30;;;;;;;14.45;11.82;;;7.00;78.50;;;;;;5060008;28;20221;-81
2022/01/23 12:28:21;;;;;;;14.55;11.73;;;7.00;79.00;;;;;;5060313;28;20289;-81
2022/01/23 12:30:49;;;;;;;14.55;12.07;;;7.00;79.30;;;;;;5055224;28;20226;-83
2022/01/23 12:33:23;;;;;;;12.82;11.40;;;6.70;79.50;;;;;;5049657;28;20204;-81
2022/01/23 12:35:54;;;;;;;13.95;11.50;;;6.60;81.00;;;;;;5056402;28;20303;-82
2022/01/23 12:38:29;;;;;;;14.93;11.65;;;7.00;82.50;;;;;;5054595;28;20226;-81
2022/01/23 12:41:22;;;;;;;13.52;11.20;;;7.00;81.30;;;;;;5051127;28;20236;-82
2022/01/23 12:43:50;;;;;;;14.07;11.68;;;7.20;77.80;;;;;;5035618;28;20615;-87
2022/01/23 12:46:36;;;;;;;14.57;12.27;;;7.10;78.20;;;;;;5049902;28;20230;-86
2022/01/23 12:49:26;;;;;;;15.40;12.07;;;6.90;79.20;;;;;;5058526;28;20217;-83
2022/01/23 12:52:14;;;;;;;13.40;11.57;;;6.60;80.90;;;;;;5032490;28;20798;-82
2022/01/23 12:54:55;;;;;;;17.33;11.45;;;6.20;81.10;;;;;;5037346;28;20228;-82
2022/01/23 12:57:32;;;;;;;14.38;11.70;;;6.10;83.70;;;;;;5037410;28;20225;-83
2022/01/23 13:00:01;;;;;;;14.23;11.50;;;6.10;83.10;;;;;;5043001;28;20210;-82
2022/01/23 13:02:40;;;;;;;16.92;12.20;;;6.10;84.10;;;;;;5029323;28;20231;-82
2022/01/23 13:05:09;;;;;;;15.20;12.38;;;6.20;83.10;;;;;;5028555;28;20218;-83
2022/01/23 13:07:43;;;;;;;22.42;14.88;;;6.00;85.00;;;;;;5042134;28;20222;-81
2022/01/23 13:10:26;;;;;;;19.05;14.13;;;6.50;85.10;;;;;;5059751;28;20230;-83
2022/01/23 13:13:05;;;;;;;35.72;24.85;;;6.70;84.80;;;;;;5051862;28;20224;-84
2022/01/23 13:15:58;;;;;;;16.25;13.27;;;7.00;82.40;;;;;;5044104;28;20214;-83
2022/01/23 13:18:44;;;;;;;18.00;13.02;;;7.10;79.60;;;;;;5052479;28;20872;-86
2022/01/23 13:32:18;;;;;;;13.23;10.02;;;6.70;77.10;;;;;;5057776;28;20221;-82
2022/01/23 13:34:49;;;;;;;12.80;10.20;;;6.50;77.00;;;;;;5056222;28;20686;-81
2022/01/23 13:37:19;;;;;;;13.75;10.10;;;6.20;78.40;;;;;;5050952;28;20232;-83
2022/01/23 13:39:53;;;;;;;13.63;10.53;;;6.00;81.20;;;;;;5054765;28;20202;-82
2022/01/23 13:59:33;;;;;;;13.30;8.83;;;5.10;89.50;;;;;;5061925;28;20209;-83
2022/01/23 14:02:15;;;;;;;13.57;9.57;;;5.10;90.40;;;;;;5053235;28;20295;-82
2022/01/23 14:04:50;;;;;;;13.53;10.67;;;5.00;91.00;;;;;;5059708;28;20221;-81
2022/01/23 14:07:22;;;;;;;12.73;9.97;;;4.80;91.70;;;;;;5049018;28;20734;-83
2022/01/23 14:09:50;;;;;;;12.47;9.50;;;4.80;92.00;;;;;;5047734;28;20197;-80
2022/01/23 14:12:22;;;;;;;14.17;9.73;;;5.00;92.00;;;;;;5041045;28;20229;-80
2022/01/23 14:14:55;;;;;;;12.30;9.67;;;5.00;91.60;;;;;;5031470;28;20600;-81
2022/01/23 14:17:32;;;;;;;13.20;9.83;;;5.00;91.70;;;;;;5032142;28;20224;-80
2022/01/23 14:20:15;;;;;;;14.80;10.30;;;4.90;91.70;;;;;;5038241;28;20198;-80
2022/01/23 14:22:43;;;;;;;13.43;10.00;;;4.90;92.10;;;;;;5049308;28;20222;-80
2022/01/23 14:25:15;;;;;;;13.97;9.40;;;4.90;92.40;;;;;;5054186;28;20221;-88
2022/01/23 14:27:45;;;;;;;13.63;10.23;;;4.80;92.30;;;;;;5041805;28;20214;-83
2022/01/23 14:30:20;;;;;;;12.93;10.73;;;4.80;92.70;;;;;;5047460;28;20198;-79
2022/01/23 14:32:52;;;;;;;14.23;10.87;;;4.70;92.90;;;;;;5029946;28;20217;-83
2022/01/23 14:35:21;;;;;;;15.93;11.80;;;4.70;93.20;;;;;;5023536;28;20289;-83
2022/01/23 14:37:51;;;;;;;14.73;10.83;;;4.70;93.50;;;;;;5024371;28;20773;-79
2022/01/23 14:40:22;;;;;;;14.40;10.80;;;4.70;93.80;;;;;;5030084;28;20248;-79
2022/01/23 14:43:03;;;;;;;14.93;11.63;;;4.70;93.70;;;;;;5020952;28;20197;-79
2022/01/23 14:45:34;;;;;;;14.70;11.30;;;4.60;93.90;;;;;;5018527;28;20216;-79
2022/01/23 14:48:01;;;;;;;14.60;11.03;;;4.60;93.80;;;;;;5032055;28;20206;-81
2022/01/23 14:50:39;;;;;;;16.20;11.53;;;4.60;93.80;;;;;;5036497;28;20206;-79
2022/01/23 14:53:10;;;;;;;16.73;12.17;;;4.60;94.00;;;;;;5036883;28;20202;-81
2022/01/23 14:55:38;;;;;;;18.63;13.00;;;4.60;94.30;;;;;;5037083;28;20213;-79
2022/01/23 14:58:10;;;;;;;17.57;11.90;;;4.50;94.40;;;;;;5036498;28;20202;-79
2022/01/23 15:00:37;;;;;;;15.70;11.80;;;4.40;95.00;;;;;;5032703;28;20230;-79
2022/01/23 15:03:06;;;;;;;16.40;12.07;;;4.50;95.00;;;;;;5037203;28;20198;-79
2022/01/23 15:05:37;;;;;;;19.80;13.40;;;4.50;94.70;;;;;;5037095;28;20214;-80
2022/01/23 15:08:07;;;;;;;19.83;12.87;;;4.50;94.60;;;;;;5036395;28;20740;-79
2022/01/23 15:10:36;;;;;;;19.90;13.33;;;4.40;94.60;;;;;;5036371;28;20210;-79
2022/01/23 15:13:12;;;;;;;17.43;12.83;;;4.40;94.90;;;;;;5037063;28;20218;-79
2022/01/23 15:15:40;;;;;;;16.37;11.80;;;4.40;95.00;;;;;;5026975;28;20233;-79
2022/01/23 15:18:07;;;;;;;21.23;13.17;;;4.40;95.00;;;;;;5033051;28;20201;-83
2022/01/23 15:20:41;;;;;;;18.20;12.97;;;4.40;95.00;;;;;;5027460;28;20695;-83
2022/01/23 15:23:09;;;;;;;18.50;12.47;;;4.30;94.90;;;;;;5025719;28;20280;-83
2022/01/23 15:25:36;;;;;;;18.77;13.50;;;4.30;94.90;;;;;;5033047;28;20238;-79
2022/01/23 15:28:07;;;;;;;17.60;12.47;;;4.30;94.90;;;;;;5029417;28;20534;-80
2022/01/23 15:30:36;;;;;;;16.13;12.00;;;4.20;94.90;;;;;;5039729;28;20225;-80
2022/01/23 15:33:06;;;;;;;16.07;12.17;;;4.30;94.90;;;;;;5037452;28;20195;-83
2022/01/23 15:35:35;;;;;;;20.27;13.93;;;4.30;94.90;;;;;;5025559;28;20199;-80
2022/01/23 15:38:05;;;;;;;18.73;13.00;;;4.20;95.50;;;;;;5034745;28;20551;-80
2022/01/23 15:40:32;;;;;;;18.70;14.17;;;4.10;95.50;;;;;;5029127;28;20206;-84
2022/01/23 15:43:02;;;;;;;17.80;12.60;;;4.10;95.70;;;;;;5029447;28;20207;-80
2022/01/23 15:45:31;;;;;;;16.90;12.53;;;4.20;95.40;;;;;;5023568;28;20226;-79
2022/01/23 15:47:59;;;;;;;18.07;12.93;;;4.20;95.50;;;;;;5029855;28;20296;-81
2022/01/23 15:50:27;;;;;;;19.37;13.83;;;4.20;95.50;;;;;;5030321;28;20195;-85
2022/01/23 15:52:54;;;;;;;20.70;14.07;;;4.30;95.40;;;;;;5030531;28;20661;-82
2022/01/23 15:55:24;;;;;;;18.77;13.63;;;4.40;95.00;;;;;;5023380;28;20211;-85